sensor_id;sensor_type;location;lat;lon;timestamp;P1;durP1;ratioP1;P2;durP2;ratioP2
62796;SDS011;48839;48.546;-4.178;2022-09-13T00:00:11;3.85;;;2.13;;
62796;SDS011;48839;48.546;-4.178;2022-09-13T00:02:37;3.03;;;2.42;;
62796;SDS011;48839;48.546;-4.178;2022-09-13T00:05:03;3.75;;;2.00;;
62796;SDS011;48839;48.546;-4.178;2022-09-13T00:07:29;2.65;;;2.00;;
62796;SDS011;48839;48.546;-4.178;2022-09-13T00:09:55;2.33;;;2.00;;
62796;SDS011;48839;48.546;-4.178;2022-09-13T00:12:21;3.03;;;1.90;;
62796;SDS011;48839;48.546;-4.178;2022-09-13T00:14:47;3.53;;;1.73;;
62796;SDS011;48839;48.546;-4.178;2022-09-13T00:17:13;2.40;;;1.70;;
62796;SDS011;48839;48.546;-4.178;2022-09-13T00:19:39;7.45;;;1.88;;
62796;SDS011;48839;48.546;-4.178;2022-09-13T00:22:05;3.72;;;1.75;;
62796;SDS011;48839;48.546;-4.178;2022-09-13T00:24:31;4.00;;;1.85;;
62796;SDS011;48839;48.546;-4.178;2022-09-13T00:26:58;6.72;;;1.70;;
62796;SDS011;48839;48.546;-4.178;2022-09-13T00:29:25;2.80;;;1.83;;
62796;SDS011;48839;48.546;-4.178;2022-09-13T00:31:51;3.10;;;1.75;;
62796;SDS011;48839;48.546;-4.178;2022-09-13T00:34:17;3.40;;;1.80;;
62796;SDS011;48839;48.546;-4.178;2022-09-13T00:36:43;3.13;;;1.58;;
62796;SDS011;48839;48.546;-4.178;2022-09-13T00:39:09;1.90;;;1.58;;
62796;SDS011;48839;48.546;-4.178;2022-09-13T00:41:36;5.95;;;1.77;;
62796;SDS011;48839;48.546;-4.178;2022-09-13T00:44:02;4.10;;;1.52;;
62796;SDS011;48839;48.546;-4.178;2022-09-13T00:51:37;3.17;;;1.80;;
62796;SDS011;48839;48.546;-4.178;2022-09-13T00:54:03;3.65;;;2.20;;
62796;SDS011;48839;48.546;-4.178;2022-09-13T00:56:34;3.25;;;1.90;;
62796;SDS011;48839;48.546;-4.178;2022-09-13T00:59:04;3.42;;;2.00;;
62796;SDS011;48839;48.546;-4.178;2022-09-13T01:01:34;5.97;;;2.42;;
62796;SDS011;48839;48.546;-4.178;2022-09-13T01:04:02;4.05;;;2.08;;
62796;SDS011;48839;48.546;-4.178;2022-09-13T01:06:29;4.00;;;2.20;;
62796;SDS011;48839;48.546;-4.178;2022-09-13T01:08:59;3.20;;;2.20;;
62796;SDS011;48839;48.546;-4.178;2022-09-13T01:13:57;4.35;;;1.77;;
62796;SDS011;48839;48.546;-4.178;2022-09-13T01:16:24;5.32;;;2.30;;
62796;SDS011;48839;48.546;-4.178;2022-09-13T01:18:50;4.32;;;2.33;;
62796;SDS011;48839;48.546;-4.178;2022-09-13T01:21:41;4.25;;;2.00;;
62796;SDS011;48839;48.546;-4.178;2022-09-13T01:26:41;3.58;;;2.08;;
62796;SDS011;48839;48.546;-4.178;2022-09-13T01:32:09;4.75;;;1.95;;
62796;SDS011;48839;48.546;-4.178;2022-09-13T01:47:51;6.70;;;2.25;;
62796;SDS011;48839;48.546;-4.178;2022-09-13T01:55:47;5.32;;;1.98;;
62796;SDS011;48839;48.546;-4.178;2022-09-13T01:58:28;4.78;;;1.92;;
62796;SDS011;48839;48.546;-4.178;2022-09-13T02:01:29;3.28;;;1.90;;
62796;SDS011;48839;48.546;-4.178;2022-09-13T02:03:51;6.32;;;2.13;;
62796;SDS011;48839;48.546;-4.178;2022-09-13T02:06:20;6.85;;;2.53;;
62796;SDS011;48839;48.546;-4.178;2022-09-13T02:08:57;2.00;;;1.80;;
62796;SDS011;48839;48.546;-4.178;2022-09-13T02:11:24;3.22;;;2.03;;
62796;SDS011;48839;48.546;-4.178;2022-09-13T02:18:57;4.80;;;2.10;;
62796;SDS011;48839;48.546;-4.178;2022-09-13T02:21:35;5.45;;;2.70;;
62796;SDS011;48839;48.546;-4.178;2022-09-13T02:26:29;8.38;;;2.47;;
62796;SDS011;48839;48.546;-4.178;2022-09-13T02:28:57;6.70;;;2.67;;
62796;SDS011;48839;48.546;-4.178;2022-09-13T02:31:25;2.92;;;2.17;;
62796;SDS011;48839;48.546;-4.178;2022-09-13T02:33:53;3.38;;;2.05;;
62796;SDS011;48839;48.546;-4.178;2022-09-13T02:36:23;3.05;;;2.35;;
62796;SDS011;48839;48.546;-4.178;2022-09-13T02:38:53;6.55;;;2.55;;
62796;SDS011;48839;48.546;-4.178;2022-09-13T02:41:27;5.00;;;2.58;;
62796;SDS011;48839;48.546;-4.178;2022-09-13T02:44:06;4.13;;;2.72;;
62796;SDS011;48839;48.546;-4.178;2022-09-13T02:51:37;3.30;;;2.47;;
62796;SDS011;48839;48.546;-4.178;2022-09-13T02:57:13;7.00;;;2.50;;
62796;SDS011;48839;48.546;-4.178;2022-09-13T02:59:40;3.60;;;2.33;;
62796;SDS011;48839;48.546;-4.178;2022-09-13T03:02:10;4.63;;;2.58;;
62796;SDS011;48839;48.546;-4.178;2022-09-13T03:04:38;3.63;;;2.30;;
62796;SDS011;48839;48.546;-4.178;2022-09-13T03:07:13;5.40;;;2.15;;
62796;SDS011;48839;48.546;-4.178;2022-09-13T03:09:46;5.30;;;2.75;;
62796;SDS011;48839;48.546;-4.178;2022-09-13T03:14:48;3.30;;;2.15;;
62796;SDS011;48839;48.546;-4.178;2022-09-13T03:25:06;9.00;;;3.03;;
62796;SDS011;48839;48.546;-4.178;2022-09-13T03:27:34;3.63;;;2.47;;
62796;SDS011;48839;48.546;-4.178;2022-09-13T03:30:03;4.32;;;2.53;;
62796;SDS011;48839;48.546;-4.178;2022-09-13T03:45:26;2.83;;;2.50;;
62796;SDS011;48839;48.546;-4.178;2022-09-13T03:47:53;7.53;;;3.00;;
62796;SDS011;48839;48.546;-4.178;2022-09-13T03:50:21;5.38;;;2.65;;
62796;SDS011;48839;48.546;-4.178;2022-09-13T03:52:49;6.15;;;3.75;;
62796;SDS011;48839;48.546;-4.178;2022-09-13T03:55:17;5.60;;;3.92;;
62796;SDS011;48839;48.546;-4.178;2022-09-13T03:57:43;11.07;;;3.55;;
62796;SDS011;48839;48.546;-4.178;2022-09-13T04:00:12;6.82;;;3.53;;
62796;SDS011;48839;48.546;-4.178;2022-09-13T04:02:38;7.30;;;3.22;;
62796;SDS011;48839;48.546;-4.178;2022-09-13T04:05:04;5.22;;;2.85;;
62796;SDS011;48839;48.546;-4.178;2022-09-13T04:07:30;7.38;;;3.00;;
62796;SDS011;48839;48.546;-4.178;2022-09-13T04:09:57;6.35;;;2.83;;
62796;SDS011;48839;48.546;-4.178;2022-09-13T04:12:23;4.20;;;3.10;;
62796;SDS011;48839;48.546;-4.178;2022-09-13T04:14:49;7.93;;;3.17;;
62796;SDS011;48839;48.546;-4.178;2022-09-13T04:17:16;5.82;;;2.88;;
62796;SDS011;48839;48.546;-4.178;2022-09-13T04:19:42;7.20;;;3.75;;
62796;SDS011;48839;48.546;-4.178;2022-09-13T04:22:09;7.03;;;4.03;;
62796;SDS011;48839;48.546;-4.178;2022-09-13T04:24:35;6.90;;;3.50;;
62796;SDS011;48839;48.546;-4.178;2022-09-13T04:27:02;5.50;;;3.22;;
62796;SDS011;48839;48.546;-4.178;2022-09-13T04:29:29;6.30;;;2.92;;
62796;SDS011;48839;48.546;-4.178;2022-09-13T04:31:55;7.50;;;2.40;;
62796;SDS011;48839;48.546;-4.178;2022-09-13T04:34:21;6.47;;;2.17;;
62796;SDS011;48839;48.546;-4.178;2022-09-13T04:36:48;6.63;;;2.00;;
62796;SDS011;48839;48.546;-4.178;2022-09-13T04:39:14;5.55;;;2.03;;
62796;SDS011;48839;48.546;-4.178;2022-09-13T04:41:41;7.65;;;2.38;;
62796;SDS011;48839;48.546;-4.178;2022-09-13T04:44:08;9.43;;;2.50;;
62796;SDS011;48839;48.546;-4.178;2022-09-13T04:46:34;9.13;;;2.10;;
62796;SDS011;48839;48.546;-4.178;2022-09-13T04:49:00;3.38;;;1.70;;
62796;SDS011;48839;48.546;-4.178;2022-09-13T04:51:27;4.78;;;2.13;;
62796;SDS011;48839;48.546;-4.178;2022-09-13T04:53:53;8.85;;;2.28;;
62796;SDS011;48839;48.546;-4.178;2022-09-13T04:56:20;5.28;;;2.50;;
62796;SDS011;48839;48.546;-4.178;2022-09-13T04:58:47;6.22;;;2.10;;
62796;SDS011;48839;48.546;-4.178;2022-09-13T05:01:13;7.57;;;2.30;;
62796;SDS011;48839;48.546;-4.178;2022-09-13T05:03:39;7.93;;;2.00;;
62796;SDS011;48839;48.546;-4.178;2022-09-13T05:06:06;8.57;;;2.65;;
62796;SDS011;48839;48.546;-4.178;2022-09-13T05:08:32;10.32;;;2.17;;
62796;SDS011;48839;48.546;-4.178;2022-09-13T05:10:59;5.95;;;2.25;;
62796;SDS011;48839;48.546;-4.178;2022-09-13T05:13:25;5.30;;;2.63;;
62796;SDS011;48839;48.546;-4.178;2022-09-13T05:15:55;7.53;;;2.10;;
62796;SDS011;48839;48.546;-4.178;2022-09-13T05:18:21;6.57;;;1.95;;
62796;SDS011;48839;48.546;-4.178;2022-09-13T05:20:47;11.02;;;2.67;;
62796;SDS011;48839;48.546;-4.178;2022-09-13T05:23:13;6.97;;;1.85;;
62796;SDS011;48839;48.546;-4.178;2022-09-13T05:25:39;6.07;;;2.10;;
62796;SDS011;48839;48.546;-4.178;2022-09-13T05:28:05;10.38;;;2.40;;
62796;SDS011;48839;48.546;-4.178;2022-09-13T05:30:31;6.10;;;2.20;;
62796;SDS011;48839;48.546;-4.178;2022-09-13T05:32:57;7.25;;;2.03;;
62796;SDS011;48839;48.546;-4.178;2022-09-13T05:35:23;8.25;;;2.33;;
62796;SDS011;48839;48.546;-4.178;2022-09-13T05:37:49;6.05;;;2.80;;
62796;SDS011;48839;48.546;-4.178;2022-09-13T05:40:15;4.88;;;1.90;;
62796;SDS011;48839;48.546;-4.178;2022-09-13T05:42:41;8.50;;;2.60;;
62796;SDS011;48839;48.546;-4.178;2022-09-13T05:45:07;10.65;;;2.45;;
62796;SDS011;48839;48.546;-4.178;2022-09-13T05:47:33;9.65;;;2.20;;
62796;SDS011;48839;48.546;-4.178;2022-09-13T05:49:59;8.90;;;2.00;;
62796;SDS011;48839;48.546;-4.178;2022-09-13T05:52:25;6.18;;;1.90;;
62796;SDS011;48839;48.546;-4.178;2022-09-13T05:54:51;4.03;;;1.90;;
62796;SDS011;48839;48.546;-4.178;2022-09-13T05:57:17;5.38;;;2.05;;
62796;SDS011;48839;48.546;-4.178;2022-09-13T05:59:43;4.95;;;2.40;;
62796;SDS011;48839;48.546;-4.178;2022-09-13T06:02:10;8.00;;;2.33;;
62796;SDS011;48839;48.546;-4.178;2022-09-13T06:04:36;7.35;;;2.20;;
62796;SDS011;48839;48.546;-4.178;2022-09-13T06:07:02;5.55;;;2.00;;
62796;SDS011;48839;48.546;-4.178;2022-09-13T06:09:28;9.02;;;2.58;;
62796;SDS011;48839;48.546;-4.178;2022-09-13T06:11:54;4.82;;;1.83;;
62796;SDS011;48839;48.546;-4.178;2022-09-13T06:14:20;8.10;;;1.90;;
62796;SDS011;48839;48.546;-4.178;2022-09-13T06:16:46;7.22;;;2.40;;
62796;SDS011;48839;48.546;-4.178;2022-09-13T06:19:12;5.90;;;1.85;;
62796;SDS011;48839;48.546;-4.178;2022-09-13T06:21:38;6.57;;;2.08;;
62796;SDS011;48839;48.546;-4.178;2022-09-13T06:24:04;5.28;;;1.70;;
62796;SDS011;48839;48.546;-4.178;2022-09-13T06:26:30;6.35;;;1.90;;
62796;SDS011;48839;48.546;-4.178;2022-09-13T06:28:57;5.05;;;2.25;;
62796;SDS011;48839;48.546;-4.178;2022-09-13T06:31:24;3.83;;;1.75;;
62796;SDS011;48839;48.546;-4.178;2022-09-13T06:33:55;6.43;;;2.00;;
62796;SDS011;48839;48.546;-4.178;2022-09-13T06:36:21;6.28;;;2.13;;
62796;SDS011;48839;48.546;-4.178;2022-09-13T06:38:48;7.20;;;2.20;;
62796;SDS011;48839;48.546;-4.178;2022-09-13T06:41:15;9.45;;;2.47;;
62796;SDS011;48839;48.546;-4.178;2022-09-13T06:43:45;10.88;;;2.15;;
62796;SDS011;48839;48.546;-4.178;2022-09-13T06:46:14;6.20;;;2.10;;
62796;SDS011;48839;48.546;-4.178;2022-09-13T06:48:42;9.82;;;2.53;;
62796;SDS011;48839;48.546;-4.178;2022-09-13T06:51:09;3.95;;;1.90;;
62796;SDS011;48839;48.546;-4.178;2022-09-13T06:53:36;5.95;;;2.47;;
62796;SDS011;48839;48.546;-4.178;2022-09-13T06:56:04;9.88;;;2.28;;
62796;SDS011;48839;48.546;-4.178;2022-09-13T06:58:31;4.78;;;1.80;;
62796;SDS011;48839;48.546;-4.178;2022-09-13T07:03:40;8.15;;;2.70;;
62796;SDS011;48839;48.546;-4.178;2022-09-13T07:06:09;6.32;;;1.73;;
62796;SDS011;48839;48.546;-4.178;2022-09-13T07:08:36;6.93;;;1.90;;
62796;SDS011;48839;48.546;-4.178;2022-09-13T07:11:02;3.75;;;1.73;;
62796;SDS011;48839;48.546;-4.178;2022-09-13T07:13:28;8.80;;;2.00;;
62796;SDS011;48839;48.546;-4.178;2022-09-13T07:15:54;4.43;;;1.70;;
62796;SDS011;48839;48.546;-4.178;2022-09-13T07:18:20;4.88;;;1.95;;
62796;SDS011;48839;48.546;-4.178;2022-09-13T07:20:46;6.88;;;1.60;;
62796;SDS011;48839;48.546;-4.178;2022-09-13T07:23:12;8.23;;;1.83;;
62796;SDS011;48839;48.546;-4.178;2022-09-13T07:25:38;6.57;;;2.20;;
62796;SDS011;48839;48.546;-4.178;2022-09-13T07:28:04;6.25;;;1.70;;
62796;SDS011;48839;48.546;-4.178;2022-09-13T07:30:30;5.53;;;1.80;;
62796;SDS011;48839;48.546;-4.178;2022-09-13T07:32:56;8.75;;;1.88;;
62796;SDS011;48839;48.546;-4.178;2022-09-13T07:35:22;7.20;;;1.90;;
62796;SDS011;48839;48.546;-4.178;2022-09-13T07:37:48;8.45;;;2.28;;
62796;SDS011;48839;48.546;-4.178;2022-09-13T07:40:14;4.63;;;1.65;;
62796;SDS011;48839;48.546;-4.178;2022-09-13T07:42:40;6.50;;;1.80;;
62796;SDS011;48839;48.546;-4.178;2022-09-13T07:45:06;5.38;;;1.67;;
62796;SDS011;48839;48.546;-4.178;2022-09-13T07:47:32;9.65;;;2.20;;
62796;SDS011;48839;48.546;-4.178;2022-09-13T07:49:58;9.68;;;1.98;;
62796;SDS011;48839;48.546;-4.178;2022-09-13T07:52:24;6.68;;;1.95;;
62796;SDS011;48839;48.546;-4.178;2022-09-13T07:54:50;6.78;;;1.75;;
62796;SDS011;48839;48.546;-4.178;2022-09-13T07:57:16;9.57;;;1.63;;
62796;SDS011;48839;48.546;-4.178;2022-09-13T07:59:42;5.55;;;1.90;;
62796;SDS011;48839;48.546;-4.178;2022-09-13T08:02:08;6.60;;;1.67;;
62796;SDS011;48839;48.546;-4.178;2022-09-13T08:04:34;8.23;;;2.00;;
62796;SDS011;48839;48.546;-4.178;2022-09-13T08:07:00;5.57;;;2.05;;
62796;SDS011;48839;48.546;-4.178;2022-09-13T08:09:26;3.95;;;1.63;;
62796;SDS011;48839;48.546;-4.178;2022-09-13T08:11:52;3.22;;;1.55;;
62796;SDS011;48839;48.546;-4.178;2022-09-13T08:14:19;8.23;;;1.90;;
62796;SDS011;48839;48.546;-4.178;2022-09-13T08:16:46;3.10;;;1.98;;
62796;SDS011;48839;48.546;-4.178;2022-09-13T08:19:13;8.38;;;1.98;;
62796;SDS011;48839;48.546;-4.178;2022-09-13T08:21:40;4.28;;;2.00;;
62796;SDS011;48839;48.546;-4.178;2022-09-13T08:24:07;4.35;;;1.83;;
62796;SDS011;48839;48.546;-4.178;2022-09-13T08:26:34;8.43;;;2.05;;
62796;SDS011;48839;48.546;-4.178;2022-09-13T08:29:02;5.63;;;1.85;;
62796;SDS011;48839;48.546;-4.178;2022-09-13T08:31:28;2.58;;;1.50;;
62796;SDS011;48839;48.546;-4.178;2022-09-13T08:33:55;5.38;;;1.58;;
62796;SDS011;48839;48.546;-4.178;2022-09-13T08:36:22;5.47;;;1.67;;
62796;SDS011;48839;48.546;-4.178;2022-09-13T08:38:49;4.32;;;1.70;;
62796;SDS011;48839;48.546;-4.178;2022-09-13T08:46:24;5.50;;;1.95;;
62796;SDS011;48839;48.546;-4.178;2022-09-13T08:48:53;6.80;;;1.92;;
62796;SDS011;48839;48.546;-4.178;2022-09-13T08:54:07;6.30;;;1.92;;
62796;SDS011;48839;48.546;-4.178;2022-09-13T09:06:45;4.95;;;1.50;;
62796;SDS011;48839;48.546;-4.178;2022-09-13T09:09:12;5.13;;;1.98;;
62796;SDS011;48839;48.546;-4.178;2022-09-13T09:14:26;5.75;;;1.45;;
62796;SDS011;48839;48.546;-4.178;2022-09-13T09:17:03;7.35;;;1.88;;
62796;SDS011;48839;48.546;-4.178;2022-09-13T09:19:35;3.58;;;1.60;;
62796;SDS011;48839;48.546;-4.178;2022-09-13T09:24:31;6.95;;;1.45;;
62796;SDS011;48839;48.546;-4.178;2022-09-13T09:26:58;3.05;;;1.52;;
62796;SDS011;48839;48.546;-4.178;2022-09-13T09:29:28;4.10;;;1.73;;
62796;SDS011;48839;48.546;-4.178;2022-09-13T09:32:11;5.22;;;1.83;;
62796;SDS011;48839;48.546;-4.178;2022-09-13T09:37:27;10.05;;;3.15;;
62796;SDS011;48839;48.546;-4.178;2022-09-13T09:39:57;5.20;;;1.83;;
62796;SDS011;48839;48.546;-4.178;2022-09-13T09:42:25;4.85;;;1.60;;
62796;SDS011;48839;48.546;-4.178;2022-09-13T09:44:54;5.00;;;2.33;;
62796;SDS011;48839;48.546;-4.178;2022-09-13T09:47:21;4.10;;;2.08;;
62796;SDS011;48839;48.546;-4.178;2022-09-13T09:49:55;5.60;;;2.25;;
62796;SDS011;48839;48.546;-4.178;2022-09-13T09:55:09;5.63;;;2.25;;
62796;SDS011;48839;48.546;-4.178;2022-09-13T09:57:48;5.63;;;2.58;;
62796;SDS011;48839;48.546;-4.178;2022-09-13T10:00:14;4.15;;;1.70;;
62796;SDS011;48839;48.546;-4.178;2022-09-13T10:02:43;6.68;;;1.88;;
62796;SDS011;48839;48.546;-4.178;2022-09-13T10:05:10;6.35;;;1.90;;
62796;SDS011;48839;48.546;-4.178;2022-09-13T10:07:37;5.05;;;2.15;;
62796;SDS011;48839;48.546;-4.178;2022-09-13T10:10:19;6.38;;;2.05;;
62796;SDS011;48839;48.546;-4.178;2022-09-13T10:12:48;6.28;;;1.88;;
62796;SDS011;48839;48.546;-4.178;2022-09-13T10:15:15;6.43;;;1.80;;
62796;SDS011;48839;48.546;-4.178;2022-09-13T10:17:41;3.25;;;1.70;;
62796;SDS011;48839;48.546;-4.178;2022-09-13T10:22:40;5.20;;;2.13;;
62796;SDS011;48839;48.546;-4.178;2022-09-13T10:27:49;6.13;;;1.80;;
62796;SDS011;48839;48.546;-4.178;2022-09-13T10:32:55;7.90;;;2.10;;
62796;SDS011;48839;48.546;-4.178;2022-09-13T10:35:22;7.32;;;2.00;;
62796;SDS011;48839;48.546;-4.178;2022-09-13T10:37:48;4.93;;;1.80;;
62796;SDS011;48839;48.546;-4.178;2022-09-13T10:40:18;9.70;;;2.22;;
62796;SDS011;48839;48.546;-4.178;2022-09-13T10:42:54;7.72;;;2.00;;
62796;SDS011;48839;48.546;-4.178;2022-09-13T10:45:22;5.28;;;2.60;;
62796;SDS011;48839;48.546;-4.178;2022-09-13T10:47:49;4.50;;;2.25;;
62796;SDS011;48839;48.546;-4.178;2022-09-13T10:50:20;8.30;;;2.10;;
62796;SDS011;48839;48.546;-4.178;2022-09-13T10:52:47;3.25;;;1.85;;
62796;SDS011;48839;48.546;-4.178;2022-09-13T10:57:43;4.25;;;1.58;;
62796;SDS011;48839;48.546;-4.178;2022-09-13T11:00:10;4.32;;;1.55;;
62796;SDS011;48839;48.546;-4.178;2022-09-13T11:02:48;7.45;;;1.98;;
62796;SDS011;48839;48.546;-4.178;2022-09-13T11:15:56;3.15;;;1.50;;
62796;SDS011;48839;48.546;-4.178;2022-09-13T11:23:46;4.03;;;1.45;;
62796;SDS011;48839;48.546;-4.178;2022-09-13T11:26:32;8.23;;;1.98;;
62796;SDS011;48839;48.546;-4.178;2022-09-13T11:46:59;4.90;;;1.67;;
62796;SDS011;48839;48.546;-4.178;2022-09-13T11:49:33;3.92;;;1.33;;
62796;SDS011;48839;48.546;-4.178;2022-09-13T11:57:03;2.03;;;1.15;;
62796;SDS011;48839;48.546;-4.178;2022-09-13T12:01:59;5.65;;;1.30;;
62796;SDS011;48839;48.546;-4.178;2022-09-13T12:04:27;7.40;;;1.35;;
62796;SDS011;48839;48.546;-4.178;2022-09-13T12:07:00;5.55;;;1.65;;
62796;SDS011;48839;48.546;-4.178;2022-09-13T12:09:27;2.33;;;1.13;;
62796;SDS011;48839;48.546;-4.178;2022-09-13T12:11:57;2.88;;;1.40;;
62796;SDS011;48839;48.546;-4.178;2022-09-13T12:14:27;5.72;;;1.17;;
62796;SDS011;48839;48.546;-4.178;2022-09-13T12:16:57;6.78;;;1.83;;
62796;SDS011;48839;48.546;-4.178;2022-09-13T12:19:29;8.95;;;1.77;;
62796;SDS011;48839;48.546;-4.178;2022-09-13T12:22:00;4.47;;;1.50;;
62796;SDS011;48839;48.546;-4.178;2022-09-13T12:26:59;3.10;;;1.23;;
62796;SDS011;48839;48.546;-4.178;2022-09-13T12:29:35;3.97;;;1.20;;
62796;SDS011;48839;48.546;-4.178;2022-09-13T12:32:04;3.72;;;1.65;;
62796;SDS011;48839;48.546;-4.178;2022-09-13T12:45:20;4.68;;;1.20;;
62796;SDS011;48839;48.546;-4.178;2022-09-13T12:55:30;3.10;;;0.80;;
62796;SDS011;48839;48.546;-4.178;2022-09-13T13:00:46;4.55;;;1.25;;
62796;SDS011;48839;48.546;-4.178;2022-09-13T13:03:27;6.63;;;1.70;;
62796;SDS011;48839;48.546;-4.178;2022-09-13T13:11:52;4.20;;;1.73;;
62796;SDS011;48839;48.546;-4.178;2022-09-13T13:15:02;5.68;;;1.85;;
62796;SDS011;48839;48.546;-4.178;2022-09-13T13:19:53;5.15;;;1.90;;
62796;SDS011;48839;48.546;-4.178;2022-09-13T13:27:48;3.72;;;1.92;;
62796;SDS011;48839;48.546;-4.178;2022-09-13T13:33:19;3.05;;;1.85;;
62796;SDS011;48839;48.546;-4.178;2022-09-13T13:35:46;6.40;;;3.03;;
62796;SDS011;48839;48.546;-4.178;2022-09-13T13:40:45;5.30;;;2.60;;
62796;SDS011;48839;48.546;-4.178;2022-09-13T13:45:56;6.15;;;2.80;;
62796;SDS011;48839;48.546;-4.178;2022-09-13T13:48:33;5.03;;;2.70;;
62796;SDS011;48839;48.546;-4.178;2022-09-13T13:53:43;5.55;;;3.20;;
62796;SDS011;48839;48.546;-4.178;2022-09-13T13:58:49;6.53;;;3.00;;
62796;SDS011;48839;48.546;-4.178;2022-09-13T14:01:20;5.05;;;3.45;;
62796;SDS011;48839;48.546;-4.178;2022-09-13T14:04:05;7.65;;;3.30;;
62796;SDS011;48839;48.546;-4.178;2022-09-13T14:20:23;5.45;;;3.40;;
62796;SDS011;48839;48.546;-4.178;2022-09-13T14:22:50;10.52;;;3.83;;
62796;SDS011;48839;48.546;-4.178;2022-09-13T14:27:46;5.68;;;3.95;;
62796;SDS011;48839;48.546;-4.178;2022-09-13T14:30:30;9.45;;;3.65;;
62796;SDS011;48839;48.546;-4.178;2022-09-13T14:32:57;10.75;;;3.90;;
62796;SDS011;48839;48.546;-4.178;2022-09-13T14:35:33;8.80;;;4.25;;
62796;SDS011;48839;48.546;-4.178;2022-09-13T14:43:27;9.10;;;4.15;;
62796;SDS011;48839;48.546;-4.178;2022-09-13T14:46:04;9.05;;;3.97;;
62796;SDS011;48839;48.546;-4.178;2022-09-13T14:51:20;8.32;;;4.15;;
62796;SDS011;48839;48.546;-4.178;2022-09-13T14:53:49;8.67;;;4.13;;
62796;SDS011;48839;48.546;-4.178;2022-09-13T14:56:24;7.55;;;3.30;;
62796;SDS011;48839;48.546;-4.178;2022-09-13T14:58:53;5.82;;;3.47;;
62796;SDS011;48839;48.546;-4.178;2022-09-13T15:01:25;11.70;;;3.60;;
62796;SDS011;48839;48.546;-4.178;2022-09-13T15:03:53;8.70;;;4.07;;
62796;SDS011;48839;48.546;-4.178;2022-09-13T15:06:21;9.82;;;4.03;;
62796;SDS011;48839;48.546;-4.178;2022-09-13T15:08:48;9.27;;;3.83;;
62796;SDS011;48839;48.546;-4.178;2022-09-13T15:11:15;10.88;;;3.50;;
62796;SDS011;48839;48.546;-4.178;2022-09-13T15:13:42;10.40;;;3.83;;
62796;SDS011;48839;48.546;-4.178;2022-09-13T15:16:22;12.48;;;4.10;;
62796;SDS011;48839;48.546;-4.178;2022-09-13T15:18:49;10.10;;;3.55;;
62796;SDS011;48839;48.546;-4.178;2022-09-13T15:21:35;10.15;;;3.33;;
62796;SDS011;48839;48.546;-4.178;2022-09-13T15:24:01;10.23;;;3.28;;
62796;SDS011;48839;48.546;-4.178;2022-09-13T15:26:27;9.20;;;3.65;;
62796;SDS011;48839;48.546;-4.178;2022-09-13T15:28:54;11.23;;;4.05;;
62796;SDS011;48839;48.546;-4.178;2022-09-13T15:31:26;10.38;;;4.32;;
62796;SDS011;48839;48.546;-4.178;2022-09-13T15:36:38;6.80;;;3.67;;
62796;SDS011;48839;48.546;-4.178;2022-09-13T15:41:36;8.98;;;3.72;;
62796;SDS011;48839;48.546;-4.178;2022-09-13T15:44:04;9.48;;;3.58;;
62796;SDS011;48839;48.546;-4.178;2022-09-13T15:46:30;9.45;;;3.38;;
62796;SDS011;48839;48.546;-4.178;2022-09-13T15:49:03;7.60;;;3.40;;
62796;SDS011;48839;48.546;-4.178;2022-09-13T15:51:30;7.88;;;3.17;;
62796;SDS011;48839;48.546;-4.178;2022-09-13T15:53:57;6.82;;;3.17;;
62796;SDS011;48839;48.546;-4.178;2022-09-13T15:56:26;10.45;;;3.55;;
62796;SDS011;48839;48.546;-4.178;2022-09-13T15:58:53;9.00;;;3.95;;
62796;SDS011;48839;48.546;-4.178;2022-09-13T16:01:19;7.43;;;3.63;;
62796;SDS011;48839;48.546;-4.178;2022-09-13T16:03:45;6.13;;;3.22;;
62796;SDS011;48839;48.546;-4.178;2022-09-13T16:06:11;8.27;;;3.58;;
62796;SDS011;48839;48.546;-4.178;2022-09-13T16:08:37;6.72;;;3.40;;
62796;SDS011;48839;48.546;-4.178;2022-09-13T16:11:03;6.57;;;3.25;;
62796;SDS011;48839;48.546;-4.178;2022-09-13T16:13:30;8.15;;;3.78;;
62796;SDS011;48839;48.546;-4.178;2022-09-13T16:15:56;5.65;;;3.78;;
62796;SDS011;48839;48.546;-4.178;2022-09-13T16:18:22;10.43;;;4.30;;
62796;SDS011;48839;48.546;-4.178;2022-09-13T16:20:48;8.65;;;3.63;;
62796;SDS011;48839;48.546;-4.178;2022-09-13T16:23:14;7.65;;;3.47;;
62796;SDS011;48839;48.546;-4.178;2022-09-13T16:25:41;12.45;;;3.50;;
62796;SDS011;48839;48.546;-4.178;2022-09-13T16:28:07;8.05;;;3.88;;
62796;SDS011;48839;48.546;-4.178;2022-09-13T16:30:37;10.93;;;3.95;;
62796;SDS011;48839;48.546;-4.178;2022-09-13T16:33:03;9.32;;;3.50;;
62796;SDS011;48839;48.546;-4.178;2022-09-13T16:35:29;8.77;;;3.35;;
62796;SDS011;48839;48.546;-4.178;2022-09-13T16:37:57;6.22;;;2.88;;
62796;SDS011;48839;48.546;-4.178;2022-09-13T16:40:23;6.47;;;3.15;;
62796;SDS011;48839;48.546;-4.178;2022-09-13T16:42:49;7.20;;;2.88;;
62796;SDS011;48839;48.546;-4.178;2022-09-13T16:45:15;8.82;;;3.70;;
62796;SDS011;48839;48.546;-4.178;2022-09-13T16:47:42;5.47;;;2.95;;
62796;SDS011;48839;48.546;-4.178;2022-09-13T16:50:08;8.43;;;3.47;;
62796;SDS011;48839;48.546;-4.178;2022-09-13T16:52:34;11.95;;;3.60;;
62796;SDS011;48839;48.546;-4.178;2022-09-13T16:55:00;6.68;;;3.47;;
62796;SDS011;48839;48.546;-4.178;2022-09-13T16:57:28;7.07;;;3.25;;
62796;SDS011;48839;48.546;-4.178;2022-09-13T16:59:54;7.78;;;3.42;;
62796;SDS011;48839;48.546;-4.178;2022-09-13T17:02:22;7.70;;;3.28;;
62796;SDS011;48839;48.546;-4.178;2022-09-13T17:04:48;8.27;;;3.90;;
62796;SDS011;48839;48.546;-4.178;2022-09-13T17:07:14;11.52;;;3.92;;
62796;SDS011;48839;48.546;-4.178;2022-09-13T17:09:40;6.20;;;3.35;;
62796;SDS011;48839;48.546;-4.178;2022-09-13T17:12:07;8.57;;;3.38;;
62796;SDS011;48839;48.546;-4.178;2022-09-13T17:14:33;6.45;;;3.30;;
62796;SDS011;48839;48.546;-4.178;2022-09-13T17:17:00;13.02;;;4.70;;
62796;SDS011;48839;48.546;-4.178;2022-09-13T17:19:30;9.82;;;3.92;;
62796;SDS011;48839;48.546;-4.178;2022-09-13T17:22:00;11.30;;;3.73;;
62796;SDS011;48839;48.546;-4.178;2022-09-13T17:24:27;13.75;;;3.80;;
62796;SDS011;48839;48.546;-4.178;2022-09-13T17:26:54;11.77;;;3.47;;
62796;SDS011;48839;48.546;-4.178;2022-09-13T17:29:23;9.77;;;3.88;;
62796;SDS011;48839;48.546;-4.178;2022-09-13T17:31:52;10.65;;;3.95;;
62796;SDS011;48839;48.546;-4.178;2022-09-13T17:34:18;10.48;;;3.78;;
62796;SDS011;48839;48.546;-4.178;2022-09-13T17:36:44;7.25;;;4.03;;
62796;SDS011;48839;48.546;-4.178;2022-09-13T17:39:10;7.13;;;3.78;;
62796;SDS011;48839;48.546;-4.178;2022-09-13T17:41:37;11.13;;;4.03;;
62796;SDS011;48839;48.546;-4.178;2022-09-13T17:44:03;10.13;;;4.05;;
62796;SDS011;48839;48.546;-4.178;2022-09-13T17:46:30;11.55;;;3.80;;
62796;SDS011;48839;48.546;-4.178;2022-09-13T17:48:56;15.20;;;4.25;;
62796;SDS011;48839;48.546;-4.178;2022-09-13T17:51:24;9.13;;;4.07;;
62796;SDS011;48839;48.546;-4.178;2022-09-13T17:53:51;9.70;;;3.60;;
62796;SDS011;48839;48.546;-4.178;2022-09-13T17:56:22;12.88;;;4.15;;
62796;SDS011;48839;48.546;-4.178;2022-09-13T17:58:53;9.93;;;3.85;;
62796;SDS011;48839;48.546;-4.178;2022-09-13T18:01:20;11.05;;;4.40;;
62796;SDS011;48839;48.546;-4.178;2022-09-13T18:03:46;12.60;;;3.90;;
62796;SDS011;48839;48.546;-4.178;2022-09-13T18:06:12;10.77;;;4.15;;
62796;SDS011;48839;48.546;-4.178;2022-09-13T18:08:39;8.80;;;4.05;;
62796;SDS011;48839;48.546;-4.178;2022-09-13T18:11:09;7.97;;;4.13;;
62796;SDS011;48839;48.546;-4.178;2022-09-13T18:13:36;9.02;;;4.55;;
62796;SDS011;48839;48.546;-4.178;2022-09-13T18:16:11;16.10;;;4.40;;
62796;SDS011;48839;48.546;-4.178;2022-09-13T18:18:37;12.75;;;4.30;;
62796;SDS011;48839;48.546;-4.178;2022-09-13T18:21:04;10.88;;;4.05;;
62796;SDS011;48839;48.546;-4.178;2022-09-13T18:23:30;9.75;;;3.88;;
62796;SDS011;48839;48.546;-4.178;2022-09-13T18:26:01;7.55;;;3.42;;
62796;SDS011;48839;48.546;-4.178;2022-09-13T18:28:27;13.10;;;4.63;;
62796;SDS011;48839;48.546;-4.178;2022-09-13T18:30:54;7.05;;;4.10;;
62796;SDS011;48839;48.546;-4.178;2022-09-13T18:33:21;9.10;;;3.85;;